sensor_id;sensor_type;location;lat;lon;timestamp;temperature;humidity
24148;DHT22;12309;51.450;-2.624;2022-12-18T00:00:29;-0.10;99.90
24148;DHT22;12309;51.450;-2.624;2022-12-18T00:02:55;0.00;99.90
24148;DHT22;12309;51.450;-2.624;2022-12-18T00:05:21;1.30;99.90
24148;DHT22;12309;51.450;-2.624;2022-12-18T00:10:13;-0.30;99.90
24148;DHT22;12309;51.450;-2.624;2022-12-18T00:15:05;-0.20;99.90
24148;DHT22;12309;51.450;-2.624;2022-12-18T00:19:56;-0.20;99.90
24148;DHT22;12309;51.450;-2.624;2022-12-18T00:34:32;0.00;99.90
24148;DHT22;12309;51.450;-2.624;2022-12-18T00:36:58;0.00;99.90
24148;DHT22;12309;51.450;-2.624;2022-12-18T00:47:00;-1.90;99.90
24148;DHT22;12309;51.450;-2.624;2022-12-18T00:51:55;0.30;99.90
24148;DHT22;12309;51.450;-2.624;2022-12-18T00:54:20;0.00;99.90
24148;DHT22;12309;51.450;-2.624;2022-12-18T00:59:12;0.10;99.90
24148;DHT22;12309;51.450;-2.624;2022-12-18T01:01:38;0.00;99.90
24148;DHT22;12309;51.450;-2.624;2022-12-18T01:04:04;0.10;99.90
24148;DHT22;12309;51.450;-2.624;2022-12-18T01:08:56;0.10;99.90
24148;DHT22;12309;51.450;-2.624;2022-12-18T01:11:22;0.00;99.90
24148;DHT22;12309;51.450;-2.624;2022-12-18T01:16:16;0.30;99.90
24148;DHT22;12309;51.450;-2.624;2022-12-18T01:18:42;0.00;99.90
24148;DHT22;12309;51.450;-2.624;2022-12-18T01:21:10;0.00;99.90
24148;DHT22;12309;51.450;-2.624;2022-12-18T01:23:36;0.10;99.90
24148;DHT22;12309;51.450;-2.624;2022-12-18T01:26:10;0.30;99.90
24148;DHT22;12309;51.450;-2.624;2022-12-18T01:28:37;0.20;99.90
24148;DHT22;12309;51.450;-2.624;2022-12-18T01:31:17;-0.10;99.90
24148;DHT22;12309;51.450;-2.624;2022-12-18T01:33:44;0.80;99.90
24148;DHT22;12309;51.450;-2.624;2022-12-18T01:36:15;0.20;99.90
24148;DHT22;12309;51.450;-2.624;2022-12-18T01:41:08;0.30;99.90
24148;DHT22;12309;51.450;-2.624;2022-12-18T01:46:07;0.30;99.90
24148;DHT22;12309;51.450;-2.624;2022-12-18T01:48:33;0.30;99.90
24148;DHT22;12309;51.450;-2.624;2022-12-18T01:51:00;0.30;99.90
24148;DHT22;12309;51.450;-2.624;2022-12-18T01:55:57;0.30;99.90
24148;DHT22;12309;51.450;-2.624;2022-12-18T02:01:20;0.00;99.90
24148;DHT22;12309;51.450;-2.624;2022-12-18T02:08:54;0.10;99.90
24148;DHT22;12309;51.450;-2.624;2022-12-18T02:11:40;0.10;99.90
24148;DHT22;12309;51.450;-2.624;2022-12-18T02:14:53;0.80;99.90
24148;DHT22;12309;51.450;-2.624;2022-12-18T02:17:22;0.30;99.90
24148;DHT22;12309;51.450;-2.624;2022-12-18T02:22:57;0.50;99.90
24148;DHT22;12309;51.450;-2.624;2022-12-18T02:28:27;1.30;99.90
24148;DHT22;12309;51.450;-2.624;2022-12-18T02:30:56;0.80;99.90
24148;DHT22;12309;51.450;-2.624;2022-12-18T02:33:25;0.80;99.90
24148;DHT22;12309;51.450;-2.624;2022-12-18T02:35:53;0.90;99.90
24148;DHT22;12309;51.450;-2.624;2022-12-18T02:38:19;0.60;99.90
24148;DHT22;12309;51.450;-2.624;2022-12-18T02:43:15;1.40;99.90
24148;DHT22;12309;51.450;-2.624;2022-12-18T02:45:57;1.40;99.90
24148;DHT22;12309;51.450;-2.624;2022-12-18T02:48:30;1.10;99.90
24148;DHT22;12309;51.450;-2.624;2022-12-18T02:51:10;1.00;99.90
24148;DHT22;12309;51.450;-2.624;2022-12-18T02:54:33;1.20;99.90
24148;DHT22;12309;51.450;-2.624;2022-12-18T02:56:56;1.10;99.90
24148;DHT22;12309;51.450;-2.624;2022-12-18T02:59:41;1.10;99.90
24148;DHT22;12309;51.450;-2.624;2022-12-18T03:05:15;1.30;99.90
24148;DHT22;12309;51.450;-2.624;2022-12-18T03:07:44;1.00;99.90
24148;DHT22;12309;51.450;-2.624;2022-12-18T03:10:15;1.10;99.90
24148;DHT22;12309;51.450;-2.624;2022-12-18T03:12:47;1.40;99.90
24148;DHT22;12309;51.450;-2.624;2022-12-18T03:15:23;1.40;99.90
24148;DHT22;12309;51.450;-2.624;2022-12-18T03:17:59;1.10;99.90
24148;DHT22;12309;51.450;-2.624;2022-12-18T03:20:26;1.50;99.90
24148;DHT22;12309;51.450;-2.624;2022-12-18T03:23:02;1.30;99.90
24148;DHT22;12309;51.450;-2.624;2022-12-18T03:25:30;1.60;99.90
24148;DHT22;12309;51.450;-2.624;2022-12-18T03:27:59;1.60;99.90
24148;DHT22;12309;51.450;-2.624;2022-12-18T03:30:26;2.00;99.90
24148;DHT22;12309;51.450;-2.624;2022-12-18T03:33:10;1.70;99.90
24148;DHT22;12309;51.450;-2.624;2022-12-18T03:35:42;1.70;99.90
24148;DHT22;12309;51.450;-2.624;2022-12-18T03:38:09;1.80;99.90
24148;DHT22;12309;51.450;-2.624;2022-12-18T03:43:19;1.60;99.90
24148;DHT22;12309;51.450;-2.624;2022-12-18T03:45:59;1.60;99.90
24148;DHT22;12309;51.450;-2.624;2022-12-18T03:48:43;1.50;99.90
24148;DHT22;12309;51.450;-2.624;2022-12-18T03:51:39;1.70;99.90
24148;DHT22;12309;51.450;-2.624;2022-12-18T03:54:08;1.50;99.90
24148;DHT22;12309;51.450;-2.624;2022-12-18T03:56:48;1.60;99.90
24148;DHT22;12309;51.450;-2.624;2022-12-18T03:59:17;2.00;99.90
24148;DHT22;12309;51.450;-2.624;2022-12-18T04:01:47;1.70;99.90
24148;DHT22;12309;51.450;-2.624;2022-12-18T04:04:16;1.60;99.90
24148;DHT22;12309;51.450;-2.624;2022-12-18T04:06:43;1.90;99.90
24148;DHT22;12309;51.450;-2.624;2022-12-18T04:11:36;2.00;99.90
24148;DHT22;12309;51.450;-2.624;2022-12-18T04:14:02;2.10;99.90
24148;DHT22;12309;51.450;-2.624;2022-12-18T04:16:28;1.90;99.90
24148;DHT22;12309;51.450;-2.624;2022-12-18T04:18:54;1.80;99.90
24148;DHT22;12309;51.450;-2.624;2022-12-18T04:21:20;2.10;99.90
24148;DHT22;12309;51.450;-2.624;2022-12-18T04:26:12;2.20;99.90
24148;DHT22;12309;51.450;-2.624;2022-12-18T04:31:05;2.00;99.90
24148;DHT22;12309;51.450;-2.624;2022-12-18T04:35:57;1.90;99.90
24148;DHT22;12309;51.450;-2.624;2022-12-18T04:38:23;2.70;99.90
24148;DHT22;12309;51.450;-2.624;2022-12-18T04:40:49;1.80;99.90
24148;DHT22;12309;51.450;-2.624;2022-12-18T04:45:40;2.20;99.90
24148;DHT22;12309;51.450;-2.624;2022-12-18T04:48:06;2.40;99.90
24148;DHT22;12309;51.450;-2.624;2022-12-18T04:52:58;2.20;99.90
24148;DHT22;12309;51.450;-2.624;2022-12-18T04:55:24;2.30;99.90
24148;DHT22;12309;51.450;-2.624;2022-12-18T05:02:41;2.00;99.90
24148;DHT22;12309;51.450;-2.624;2022-12-18T05:05:07;2.40;99.90
24148;DHT22;12309;51.450;-2.624;2022-12-18T05:12:25;2.50;99.90
24148;DHT22;12309;51.450;-2.624;2022-12-18T05:14:51;2.10;99.90
24148;DHT22;12309;51.450;-2.624;2022-12-18T05:19:43;3.10;99.90
24148;DHT22;12309;51.450;-2.624;2022-12-18T05:24:35;2.40;99.90
24148;DHT22;12309;51.450;-2.624;2022-12-18T05:27:01;1.70;99.90
24148;DHT22;12309;51.450;-2.624;2022-12-18T05:29:27;2.50;99.90
24148;DHT22;12309;51.450;-2.624;2022-12-18T05:34:19;2.40;99.90
24148;DHT22;12309;51.450;-2.624;2022-12-18T05:36:44;2.40;99.90
24148;DHT22;12309;51.450;-2.624;2022-12-18T05:44:02;2.60;99.90
24148;DHT22;12309;51.450;-2.624;2022-12-18T05:48:54;2.60;99.90
24148;DHT22;12309;51.450;-2.624;2022-12-18T05:51:22;2.10;99.90
24148;DHT22;12309;51.450;-2.624;2022-12-18T05:53:48;2.80;99.90
24148;DHT22;12309;51.450;-2.624;2022-12-18T05:56:16;2.70;99.90
24148;DHT22;12309;51.450;-2.624;2022-12-18T05:58:42;2.40;99.90
24148;DHT22;12309;51.450;-2.624;2022-12-18T06:01:15;2.60;99.90
24148;DHT22;12309;51.450;-2.624;2022-12-18T06:06:36;2.60;99.90
24148;DHT22;12309;51.450;-2.624;2022-12-18T06:09:02;2.80;99.90
24148;DHT22;12309;51.450;-2.624;2022-12-18T06:11:34;2.70;99.90
24148;DHT22;12309;51.450;-2.624;2022-12-18T06:14:00;2.90;99.90
24148;DHT22;12309;51.450;-2.624;2022-12-18T06:16:27;4.30;99.90
24148;DHT22;12309;51.450;-2.624;2022-12-18T06:18:59;2.80;99.90
24148;DHT22;12309;51.450;-2.624;2022-12-18T06:21:25;2.90;99.90
24148;DHT22;12309;51.450;-2.624;2022-12-18T06:23:51;2.70;99.90
24148;DHT22;12309;51.450;-2.624;2022-12-18T06:28:43;2.80;99.90
24148;DHT22;12309;51.450;-2.624;2022-12-18T06:31:09;3.00;99.90
24148;DHT22;12309;51.450;-2.624;2022-12-18T06:33:35;2.90;99.90
24148;DHT22;12309;51.450;-2.624;2022-12-18T06:36:03;2.90;99.90
24148;DHT22;12309;51.450;-2.624;2022-12-18T06:38:30;3.00;99.90
24148;DHT22;12309;51.450;-2.624;2022-12-18T06:40:56;3.00;99.90
24148;DHT22;12309;51.450;-2.624;2022-12-18T06:43:22;2.90;99.90
24148;DHT22;12309;51.450;-2.624;2022-12-18T06:45:47;3.00;99.90
24148;DHT22;12309;51.450;-2.624;2022-12-18T06:48:19;3.10;99.90
24148;DHT22;12309;51.450;-2.624;2022-12-18T06:50:45;3.10;99.90
24148;DHT22;12309;51.450;-2.624;2022-12-18T06:53:11;3.60;99.90
24148;DHT22;12309;51.450;-2.624;2022-12-18T06:55:37;3.40;99.90
24148;DHT22;12309;51.450;-2.624;2022-12-18T07:00:28;3.10;99.90
24148;DHT22;12309;51.450;-2.624;2022-12-18T07:07:46;3.00;99.90
24148;DHT22;12309;51.450;-2.624;2022-12-18T07:12:38;3.20;99.90
24148;DHT22;12309;51.450;-2.624;2022-12-18T07:15:04;3.50;99.90
24148;DHT22;12309;51.450;-2.624;2022-12-18T07:17:30;3.10;99.90
24148;DHT22;12309;51.450;-2.624;2022-12-18T07:19:55;3.30;99.90
24148;DHT22;12309;51.450;-2.624;2022-12-18T07:27:14;3.30;99.90
24148;DHT22;12309;51.450;-2.624;2022-12-18T07:32:06;3.20;99.90
24148;DHT22;12309;51.450;-2.624;2022-12-18T07:34:32;2.90;99.90
24148;DHT22;12309;51.450;-2.624;2022-12-18T07:36:58;3.50;99.90
24148;DHT22;12309;51.450;-2.624;2022-12-18T07:39:24;3.40;99.90
24148;DHT22;12309;51.450;-2.624;2022-12-18T07:41:49;3.30;99.90
24148;DHT22;12309;51.450;-2.624;2022-12-18T07:44:36;3.60;99.90
24148;DHT22;12309;51.450;-2.624;2022-12-18T07:47:03;3.50;99.90
24148;DHT22;12309;51.450;-2.624;2022-12-18T07:49:28;3.50;99.90
24148;DHT22;12309;51.450;-2.624;2022-12-18T07:51:55;3.40;99.90
24148;DHT22;12309;51.450;-2.624;2022-12-18T07:54:22;3.70;99.90
24148;DHT22;12309;51.450;-2.624;2022-12-18T07:56:48;3.40;99.90
24148;DHT22;12309;51.450;-2.624;2022-12-18T07:59:13;3.50;99.90
24148;DHT22;12309;51.450;-2.624;2022-12-18T08:01:39;3.60;99.90
24148;DHT22;12309;51.450;-2.624;2022-12-18T08:04:05;3.70;99.90
24148;DHT22;12309;51.450;-2.624;2022-12-18T08:06:31;4.80;99.90
24148;DHT22;12309;51.450;-2.624;2022-12-18T08:11:24;3.30;99.90
24148;DHT22;12309;51.450;-2.624;2022-12-18T08:13:50;4.00;99.90
24148;DHT22;12309;51.450;-2.624;2022-12-18T08:16:16;3.30;99.90
24148;DHT22;12309;51.450;-2.624;2022-12-18T08:18:42;3.50;99.90
24148;DHT22;12309;51.450;-2.624;2022-12-18T08:21:16;3.40;99.90
24148;DHT22;12309;51.450;-2.624;2022-12-18T08:26:13;3.90;99.90
24148;DHT22;12309;51.450;-2.624;2022-12-18T08:28:39;3.70;99.90
24148;DHT22;12309;51.450;-2.624;2022-12-18T08:31:06;3.60;99.90
24148;DHT22;12309;51.450;-2.624;2022-12-18T08:33:32;3.70;99.90
24148;DHT22;12309;51.450;-2.624;2022-12-18T08:35:59;3.50;99.90
24148;DHT22;12309;51.450;-2.624;2022-12-18T08:41:05;3.40;99.90
24148;DHT22;12309;51.450;-2.624;2022-12-18T08:43:31;3.30;99.90
24148;DHT22;12309;51.450;-2.624;2022-12-18T08:46:15;3.40;99.90
24148;DHT22;12309;51.450;-2.624;2022-12-18T08:48:40;3.40;99.90
24148;DHT22;12309;51.450;-2.624;2022-12-18T08:58:26;3.40;99.90
24148;DHT22;12309;51.450;-2.624;2022-12-18T09:00:52;3.70;99.90
24148;DHT22;12309;51.450;-2.624;2022-12-18T09:03:19;3.10;99.90
24148;DHT22;12309;51.450;-2.624;2022-12-18T09:05:48;2.70;99.90
24148;DHT22;12309;51.450;-2.624;2022-12-18T09:08:14;3.40;99.90
24148;DHT22;12309;51.450;-2.624;2022-12-18T09:10:48;3.50;99.90
24148;DHT22;12309;51.450;-2.624;2022-12-18T09:13:14;3.40;99.90
24148;DHT22;12309;51.450;-2.624;2022-12-18T09:15:42;2.70;99.90
24148;DHT22;12309;51.450;-2.624;2022-12-18T09:18:09;3.10;99.90
24148;DHT22;12309;51.450;-2.624;2022-12-18T09:20:36;3.80;99.90
24148;DHT22;12309;51.450;-2.624;2022-12-18T09:23:02;3.20;99.90
24148;DHT22;12309;51.450;-2.624;2022-12-18T09:25:29;3.50;99.90
24148;DHT22;12309;51.450;-2.624;2022-12-18T09:27:59;3.30;99.90
24148;DHT22;12309;51.450;-2.624;2022-12-18T09:30:24;3.30;99.90
24148;DHT22;12309;51.450;-2.624;2022-12-18T09:32:50;3.50;99.90
24148;DHT22;12309;51.450;-2.624;2022-12-18T09:37:42;3.10;99.90
24148;DHT22;12309;51.450;-2.624;2022-12-18T09:40:14;3.50;99.90
24148;DHT22;12309;51.450;-2.624;2022-12-18T09:45:12;3.30;99.90
24148;DHT22;12309;51.450;-2.624;2022-12-18T09:47:40;3.40;99.90
24148;DHT22;12309;51.450;-2.624;2022-12-18T09:52:50;3.50;99.90
24148;DHT22;12309;51.450;-2.624;2022-12-18T09:57:49;3.60;99.90
24148;DHT22;12309;51.450;-2.624;2022-12-18T10:00:20;2.80;99.90
24148;DHT22;12309;51.450;-2.624;2022-12-18T10:02:47;3.80;99.90
24148;DHT22;12309;51.450;-2.624;2022-12-18T10:05:15;3.70;99.90
24148;DHT22;12309;51.450;-2.624;2022-12-18T10:13:45;3.50;99.90
24148;DHT22;12309;51.450;-2.624;2022-12-18T10:16:00;3.50;99.90
24148;DHT22;12309;51.450;-2.624;2022-12-18T10:21:11;5.90;99.90
24148;DHT22;12309;51.450;-2.624;2022-12-18T10:26:09;3.60;99.90
24148;DHT22;12309;51.450;-2.624;2022-12-18T10:28:40;3.70;99.90
24148;DHT22;12309;51.450;-2.624;2022-12-18T10:31:13;3.60;99.90
24148;DHT22;12309;51.450;-2.624;2022-12-18T10:33:39;3.70;99.90
24148;DHT22;12309;51.450;-2.624;2022-12-18T10:36:06;3.50;99.90
24148;DHT22;12309;51.450;-2.624;2022-12-18T10:38:32;3.90;99.90
24148;DHT22;12309;51.450;-2.624;2022-12-18T10:46:17;3.60;99.90
24148;DHT22;12309;51.450;-2.624;2022-12-18T10:51:34;3.70;99.90
24148;DHT22;12309;51.450;-2.624;2022-12-18T10:54:07;3.80;99.90
24148;DHT22;12309;51.450;-2.624;2022-12-18T10:56:39;3.80;99.90
24148;DHT22;12309;51.450;-2.624;2022-12-18T10:59:07;3.90;99.90
24148;DHT22;12309;51.450;-2.624;2022-12-18T11:01:52;3.60;99.90
24148;DHT22;12309;51.450;-2.624;2022-12-18T11:04:25;3.70;99.90
24148;DHT22;12309;51.450;-2.624;2022-12-18T11:06:58;4.20;99.90
24148;DHT22;12309;51.450;-2.624;2022-12-18T11:09:30;3.80;99.90
24148;DHT22;12309;51.450;-2.624;2022-12-18T11:11:59;3.80;99.90
24148;DHT22;12309;51.450;-2.624;2022-12-18T11:14:32;4.20;99.90
24148;DHT22;12309;51.450;-2.624;2022-12-18T11:17:00;4.90;99.90
24148;DHT22;12309;51.450;-2.624;2022-12-18T11:21:55;4.00;99.90
24148;DHT22;12309;51.450;-2.624;2022-12-18T11:26:48;3.90;99.90
24148;DHT22;12309;51.450;-2.624;2022-12-18T11:29:22;3.60;99.90
24148;DHT22;12309;51.450;-2.624;2022-12-18T11:34:30;4.40;99.90
24148;DHT22;12309;51.450;-2.624;2022-12-18T11:36:59;3.80;99.90
24148;DHT22;12309;51.450;-2.624;2022-12-18T11:42:08;4.10;99.90
24148;DHT22;12309;51.450;-2.624;2022-12-18T11:44:50;4.10;99.90
24148;DHT22;12309;51.450;-2.624;2022-12-18T11:47:30;4.10;99.90
24148;DHT22;12309;51.450;-2.624;2022-12-18T11:50:02;4.20;99.90
24148;DHT22;12309;51.450;-2.624;2022-12-18T11:52:36;4.20;99.90
24148;DHT22;12309;51.450;-2.624;2022-12-18T11:58:00;4.30;99.90
24148;DHT22;12309;51.450;-2.624;2022-12-18T12:00:28;4.30;99.90
24148;DHT22;12309;51.450;-2.624;2022-12-18T12:03:55;4.50;99.90
24148;DHT22;12309;51.450;-2.624;2022-12-18T12:11:39;4.50;99.90
24148;DHT22;12309;51.450;-2.624;2022-12-18T12:14:31;4.40;99.90
24148;DHT22;12309;51.450;-2.624;2022-12-18T12:20:06;4.50;99.90
24148;DHT22;12309;51.450;-2.624;2022-12-18T12:38:26;4.60;99.90
24148;DHT22;12309;51.450;-2.624;2022-12-18T12:40:57;4.70;99.90
24148;DHT22;12309;51.450;-2.624;2022-12-18T12:43:46;5.00;99.90
24148;DHT22;12309;51.450;-2.624;2022-12-18T12:46:16;4.90;99.90
24148;DHT22;12309;51.450;-2.624;2022-12-18T12:48:52;4.90;99.90
24148;DHT22;12309;51.450;-2.624;2022-12-18T12:51:28;4.90;99.90
24148;DHT22;12309;51.450;-2.624;2022-12-18T12:53:57;4.90;99.90
24148;DHT22;12309;51.450;-2.624;2022-12-18T13:02:28;5.20;99.90
24148;DHT22;12309;51.450;-2.624;2022-12-18T13:05:28;5.00;99.90
24148;DHT22;12309;51.450;-2.624;2022-12-18T13:08:08;6.80;99.90
24148;DHT22;12309;51.450;-2.624;2022-12-18T13:10:39;5.10;99.90
24148;DHT22;12309;51.450;-2.624;2022-12-18T13:13:16;5.10;99.90
24148;DHT22;12309;51.450;-2.624;2022-12-18T13:15:45;5.30;99.90
24148;DHT22;12309;51.450;-2.624;2022-12-18T13:18:22;5.30;99.90
24148;DHT22;12309;51.450;-2.624;2022-12-18T13:31:06;5.60;99.90
24148;DHT22;12309;51.450;-2.624;2022-12-18T13:33:43;6.60;99.90
24148;DHT22;12309;51.450;-2.624;2022-12-18T13:36:32;5.30;99.90
24148;DHT22;12309;51.450;-2.624;2022-12-18T13:44:32;5.70;99.90
24148;DHT22;12309;51.450;-2.624;2022-12-18T13:47:00;5.80;99.90
24148;DHT22;12309;51.450;-2.624;2022-12-18T13:49:41;5.80;99.90
24148;DHT22;12309;51.450;-2.624;2022-12-18T13:52:22;5.90;99.90
24148;DHT22;12309;51.450;-2.624;2022-12-18T13:54:52;6.00;99.90
24148;DHT22;12309;51.450;-2.624;2022-12-18T13:57:29;6.00;99.90
24148;DHT22;12309;51.450;-2.624;2022-12-18T13:59:57;7.50;99.90
24148;DHT22;12309;51.450;-2.624;2022-12-18T14:02:27;6.40;99.90
24148;DHT22;12309;51.450;-2.624;2022-12-18T14:04:54;6.80;99.90
24148;DHT22;12309;51.450;-2.624;2022-12-18T14:07:25;6.50;99.90
24148;DHT22;12309;51.450;-2.624;2022-12-18T14:10:01;7.10;99.90
24148;DHT22;12309;51.450;-2.624;2022-12-18T14:12:30;7.20;99.90
24148;DHT22;12309;51.450;-2.624;2022-12-18T14:18:00;7.70;99.90
24148;DHT22;12309;51.450;-2.624;2022-12-18T14:20:32;7.30;99.90
24148;DHT22;12309;51.450;-2.624;2022-12-18T14:22:58;8.00;99.90
24148;DHT22;12309;51.450;-2.624;2022-12-18T14:25:30;8.00;99.90
24148;DHT22;12309;51.450;-2.624;2022-12-18T14:30:40;8.00;99.90
24148;DHT22;12309;51.450;-2.624;2022-12-18T14:33:17;8.10;99.90
24148;DHT22;12309;51.450;-2.624;2022-12-18T14:35:58;8.10;99.90
24148;DHT22;12309;51.450;-2.624;2022-12-18T14:38:39;8.30;99.90
24148;DHT22;12309;51.450;-2.624;2022-12-18T14:41:10;10.90;99.90
24148;DHT22;12309;51.450;-2.624;2022-12-18T14:43:38;8.40;99.90
24148;DHT22;12309;51.450;-2.624;2022-12-18T14:48:49;8.50;99.90
24148;DHT22;12309;51.450;-2.624;2022-12-18T14:51:23;8.60;99.90
24148;DHT22;12309;51.450;-2.624;2022-12-18T14:56:23;8.90;99.90
24148;DHT22;12309;51.450;-2.624;2022-12-18T14:59:04;9.00;99.90
24148;DHT22;12309;51.450;-2.624;2022-12-18T15:01:34;8.60;99.90
24148;DHT22;12309;51.450;-2.624;2022-12-18T15:04:03;8.80;99.90
24148;DHT22;12309;51.450;-2.624;2022-12-18T15:06:35;8.90;99.90
24148;DHT22;12309;51.450;-2.624;2022-12-18T15:09:20;9.10;99.90
24148;DHT22;12309;51.450;-2.624;2022-12-18T15:11:47;9.00;99.90
24148;DHT22;12309;51.450;-2.624;2022-12-18T15:14:42;9.30;99.90
24148;DHT22;12309;51.450;-2.624;2022-12-18T15:17:19;9.00;99.90
24148;DHT22;12309;51.450;-2.624;2022-12-18T15:19:47;8.50;99.90
24148;DHT22;12309;51.450;-2.624;2022-12-18T15:22:24;8.90;99.90
24148;DHT22;12309;51.450;-2.624;2022-12-18T15:24:51;9.20;99.90
24148;DHT22;12309;51.450;-2.624;2022-12-18T15:27:35;8.90;99.90
24148;DHT22;12309;51.450;-2.624;2022-12-18T15:30:25;9.00;99.90
24148;DHT22;12309;51.450;-2.624;2022-12-18T15:32:52;8.80;99.90
24148;DHT22;12309;51.450;-2.624;2022-12-18T15:35:37;9.10;99.90
24148;DHT22;12309;51.450;-2.624;2022-12-18T15:38:03;9.10;99.90
24148;DHT22;12309;51.450;-2.624;2022-12-18T15:40:29;9.20;99.90
24148;DHT22;12309;51.450;-2.624;2022-12-18T15:42:55;10.10;99.90
24148;DHT22;12309;51.450;-2.624;2022-12-18T15:45:41;8.80;99.90
24148;DHT22;12309;51.450;-2.624;2022-12-18T15:48:21;9.10;99.90
24148;DHT22;12309;51.450;-2.624;2022-12-18T15:50:48;9.00;99.90
24148;DHT22;12309;51.450;-2.624;2022-12-18T15:55:40;9.70;99.90
24148;DHT22;12309;51.450;-2.624;2022-12-18T15:58:24;9.30;99.90
24148;DHT22;12309;51.450;-2.624;2022-12-18T16:00:49;9.10;99.90
24148;DHT22;12309;51.450;-2.624;2022-12-18T16:05:41;9.20;99.90
24148;DHT22;12309;51.450;-2.624;2022-12-18T16:10:33;8.70;99.90
24148;DHT22;12309;51.450;-2.624;2022-12-18T16:13:00;9.20;99.90
24148;DHT22;12309;51.450;-2.624;2022-12-18T16:15:25;9.20;99.90
24148;DHT22;12309;51.450;-2.624;2022-12-18T16:17:51;9.40;99.90
24148;DHT22;12309;51.450;-2.624;2022-12-18T16:20:20;9.20;99.90
24148;DHT22;12309;51.450;-2.624;2022-12-18T16:22:47;9.20;99.90
24148;DHT22;12309;51.450;-2.624;2022-12-18T16:25:21;9.40;99.90
24148;DHT22;12309;51.450;-2.624;2022-12-18T16:27:48;9.50;99.90
24148;DHT22;12309;51.450;-2.624;2022-12-18T16:30:19;9.10;99.90
24148;DHT22;12309;51.450;-2.624;2022-12-18T16:32:46;9.30;99.90
24148;DHT22;12309;51.450;-2.624;2022-12-18T16:35:13;9.30;99.90
24148;DHT22;12309;51.450;-2.624;2022-12-18T16:37:40;9.20;99.90
24148;DHT22;12309;51.450;-2.624;2022-12-18T16:40:07;9.90;99.90
24148;DHT22;12309;51.450;-2.624;2022-12-18T16:42:35;9.50;99.90
24148;DHT22;12309;51.450;-2.624;2022-12-18T16:45:01;9.50;99.90
24148;DHT22;12309;51.450;-2.624;2022-12-18T16:47:27;9.20;99.90
24148;DHT22;12309;51.450;-2.624;2022-12-18T16:49:53;9.20;99.90
24148;DHT22;12309;51.450;-2.624;2022-12-18T16:52:20;9.80;99.90
24148;DHT22;12309;51.450;-2.624;2022-12-18T16:54:46;9.10;99.90
24148;DHT22;12309;51.450;-2.624;2022-12-18T16:57:15;9.30;99.90
24148;DHT22;12309;51.450;-2.624;2022-12-18T16:59:41;9.50;99.90
24148;DHT22;12309;51.450;-2.624;2022-12-18T17:02:14;9.60;99.90
24148;DHT22;12309;51.450;-2.624;2022-12-18T17:04:41;10.00;99.90
24148;DHT22;12309;51.450;-2.624;2022-12-18T17:07:07;9.70;99.90
24148;DHT22;12309;51.450;-2.624;2022-12-18T17:09:33;10.00;99.90
24148;DHT22;12309;51.450;-2.624;2022-12-18T17:11:59;9.80;99.90
24148;DHT22;12309;51.450;-2.624;2022-12-18T17:14:25;9.60;99.90
24148;DHT22;12309;51.450;-2.624;2022-12-18T17:16:52;9.30;99.90
24148;DHT22;12309;51.450;-2.624;2022-12-18T17:19:18;9.70;99.90
24148;DHT22;12309;51.450;-2.624;2022-12-18T17:21:46;9.70;99.90
24148;DHT22;12309;51.450;-2.624;2022-12-18T17:24:12;9.90;99.90
24148;DHT22;12309;51.450;-2.624;2022-12-18T17:26:38;9.80;99.90
24148;DHT22;12309;51.450;-2.624;2022-12-18T17:29:03;9.90;99.90
24148;DHT22;12309;51.450;-2.624;2022-12-18T17:31:30;9.80;99.90
24148;DHT22;12309;51.450;-2.624;2022-12-18T17:33:56;9.90;99.90
24148;DHT22;12309;51.450;-2.624;2022-12-18T17:36:23;10.10;99.90
24148;DHT22;12309;51.450;-2.624;2022-12-18T17:38:54;10.00;99.90
24148;DHT22;12309;51.450;-2.624;2022-12-18T17:41:21;10.00;99.90
24148;DHT22;12309;51.450;-2.624;2022-12-18T17:44:01;10.10;99.90
24148;DHT22;12309;51.450;-2.624;2022-12-18T17:46:29;10.20;99.90
24148;DHT22;12309;51.450;-2.624;2022-12-18T17:48:59;10.20;99.90
24148;DHT22;12309;51.450;-2.624;2022-12-18T17:51:26;10.20;99.90
24148;DHT22;12309;51.450;-2.624;2022-12-18T17:53:52;10.30;99.90
24148;DHT22;12309;51.450;-2.624;2022-12-18T17:56:20;10.30;99.90
24148;DHT22;12309;51.450;-2.624;2022-12-18T17:58:46;10.70;99.90
24148;DHT22;12309;51.450;-2.624;2022-12-18T18:01:14;10.20;99.90
24148;DHT22;12309;51.450;-2.624;2022-12-18T18:03:40;10.60;99.90
24148;DHT22;12309;51.450;-2.624;2022-12-18T18:06:06;10.60;99.90
24148;DHT22;12309;51.450;-2.624;2022-12-18T18:08:33;10.40;99.90
24148;DHT22;12309;51.450;-2.624;2022-12-18T18:11:06;10.70;99.90
24148;DHT22;12309;51.450;-2.624;2022-12-18T18:13:50;10.50;99.90
24148;DHT22;12309;51.450;-2.624;2022-12-18T18:16:26;10.50;99.90
24148;DHT22;12309;51.450;-2.624;2022-12-18T18:21:18;10.30;99.90
24148;DHT22;12309;51.450;-2.624;2022-12-18T18:23:43;10.80;99.90
24148;DHT22;12309;51.450;-2.624;2022-12-18T18:26:09;10.80;99.90
24148;DHT22;12309;51.450;-2.624;2022-12-18T18:28:35;10.80;99.90
24148;DHT22;12309;51.450;-2.624;2022-12-18T18:31:05;10.20;99.90
24148;DHT22;12309;51.450;-2.624;2022-12-18T18:33:32;11.00;99.90
24148;DHT22;12309;51.450;-2.624;2022-12-18T18:35:57;10.70;99.90
24148;DHT22;12309;51.450;-2.624;2022-12-18T18:38:23;10.70;99.90
24148;DHT22;12309;51.450;-2.624;2022-12-18T18:41:00;10.60;99.90
24148;DHT22;12309;51.450;-2.624;2022-12-18T18:43:26;10.70;99.90
24148;DHT22;12309;51.450;-2.624;2022-12-18T18:45:59;10.50;99.90
24148;DHT22;12309;51.450;-2.624;2022-12-18T18:48:26;10.70;99.90
24148;DHT22;12309;51.450;-2.624;2022-12-18T18:51:12;10.90;99.90
24148;DHT22;12309;51.450;-2.624;2022-12-18T18:53:39;11.00;99.90
24148;DHT22;12309;51.450;-2.624;2022-12-18T18:56:07;10.90;99.90
24148;DHT22;12309;51.450;-2.624;2022-12-18T18:58:33;11.40;99.90
24148;DHT22;12309;51.450;-2.624;2022-12-18T19:01:01;11.00;99.90
24148;DHT22;12309;51.450;-2.624;2022-12-18T19:03:28;11.40;99.90
24148;DHT22;12309;51.450;-2.624;2022-12-18T19:05:55;11.40;99.90
24148;DHT22;12309;51.450;-2.624;2022-12-18T19:08:29;11.30;99.90
24148;DHT22;12309;51.450;-2.624;2022-12-18T19:10:57;11.30;99.90
24148;DHT22;12309;51.450;-2.624;2022-12-18T19:13:26;11.40;99.90
24148;DHT22;12309;51.450;-2.624;2022-12-18T19:16:02;11.40;99.90
24148;DHT22;12309;51.450;-2.624;2022-12-18T19:18:28;11.00;99.90
24148;DHT22;12309;51.450;-2.624;2022-12-18T19:20:58;11.30;99.90
24148;DHT22;12309;51.450;-2.624;2022-12-18T19:23:24;11.50;99.90
24148;DHT22;12309;51.450;-2.624;2022-12-18T19:25:50;11.80;99.90
24148;DHT22;12309;51.450;-2.624;2022-12-18T19:30:43;11.80;99.90
24148;DHT22;12309;51.450;-2.624;2022-12-18T19:33:09;11.70;99.90
24148;DHT22;12309;51.450;-2.624;2022-12-18T19:35:34;11.80;99.90
24148;DHT22;12309;51.450;-2.624;2022-12-18T19:38:00;12.00;99.90
24148;DHT22;12309;51.450;-2.624;2022-12-18T19:40:26;11.80;99.90
24148;DHT22;12309;51.450;-2.624;2022-12-18T19:42:51;11.80;99.90
24148;DHT22;12309;51.450;-2.624;2022-12-18T19:45:17;11.90;99.90
24148;DHT22;12309;51.450;-2.624;2022-12-18T19:47:43;12.40;99.90
24148;DHT22;12309;51.450;-2.624;2022-12-18T19:50:09;12.10;99.90
24148;DHT22;12309;51.450;-2.624;2022-12-18T19:52:35;11.80;99.90
24148;DHT22;12309;51.450;-2.624;2022-12-18T19:55:01;12.00;99.90
24148;DHT22;12309;51.450;-2.624;2022-12-18T19:57:27;12.00;99.90